Time;durP1;ratioP1;P1;durP2;ratioP2;P2;SDS_P1;SDS_P2;PMS_P1;PMS_P2;Temp;Humidity;BMP_temperature;BMP_pressure;BME280_temperature;BME280_humidity;BME280_pressure;Samples;Min_cycle;Max_cycle;Signal;HPM_P1;HPM_P2
2021/10/02 00:01:45;0.00;0.00;0.62;0.00;0.00;0.62;1.80;1.07;;;27.70;29.40;;;;;;2253234;61;20379;-55
2021/10/02 00:46:55;0.00;0.00;0.62;0.00;0.00;0.62;1.30;0.80;;;27.80;29.50;;;;;;2253855;61;20359;-57
2021/10/02 00:49:42;0.00;0.00;0.62;0.00;0.00;0.62;1.30;0.90;;;27.80;29.50;;;;;;2253460;61;20360;-54
2021/10/02 00:52:27;0.00;0.00;0.62;0.00;0.00;0.62;1.47;0.80;;;27.80;29.50;;;;;;2253932;61;20382;-57
2021/10/02 00:55:13;0.00;0.00;0.62;0.00;0.00;0.62;1.40;0.70;;;27.80;29.50;;;;;;2253530;61;20686;-55
2021/10/02 00:57:58;0.00;0.00;0.62;0.00;0.00;0.62;1.30;0.80;;;27.80;29.50;;;;;;2253725;61;20521;-56
2021/10/02 01:00:45;0.00;0.00;0.62;0.00;0.00;0.62;1.27;0.80;;;27.80;29.50;;;;;;2253801;61;20430;-53
2021/10/02 01:03:56;0.00;0.00;0.62;0.00;0.00;0.62;1.20;0.70;;;27.80;29.50;;;;;;2253206;61;20579;-56
2021/10/02 01:07:00;0.00;0.00;0.62;0.00;0.00;0.62;1.83;0.87;;;27.80;29.50;;;;;;2253912;61;20359;-55
2021/10/02 01:10:08;0.00;0.00;0.62;0.00;0.00;0.62;1.40;0.90;;;27.80;29.40;;;;;;2253523;61;20728;-51
2021/10/02 01:13:12;0.00;0.00;0.62;0.00;0.00;0.62;1.20;0.70;;;27.80;29.30;;;;;;2253634;61;20759;-53
2021/10/02 01:16:02;0.00;0.00;0.62;0.00;0.00;0.62;1.60;0.90;;;27.70;29.20;;;;;;2256314;61;20374;-54
2021/10/02 01:18:54;0.00;0.00;0.62;0.00;0.00;0.62;1.40;0.90;;;27.70;29.10;;;;;;2257064;61;20712;-57
2021/10/02 01:21:54;0.00;0.00;0.62;0.00;0.00;0.62;1.30;0.80;;;27.70;29.00;;;;;;2257887;61;20487;-54
2021/10/02 01:25:01;0.00;0.00;0.62;0.00;0.00;0.62;1.60;1.10;;;27.70;29.00;;;;;;2257197;61;20414;-54
2021/10/02 01:27:54;0.00;0.00;0.62;0.00;0.00;0.62;1.50;0.90;;;27.70;29.00;;;;;;2257885;61;20367;-52
2021/10/02 01:31:04;0.00;0.00;0.62;0.00;0.00;0.62;1.70;1.10;;;27.70;28.90;;;;;;2257728;61;20571;-54
2021/10/02 01:34:00;0.00;0.00;0.62;0.00;0.00;0.62;1.50;0.90;;;27.70;28.90;;;;;;2259400;61;20379;-54
2021/10/02 01:49:15;0.00;0.00;0.62;0.00;0.00;0.62;1.90;1.10;;;27.60;28.40;;;;;;2257700;61;20409;-54
2021/10/02 01:52:00;0.00;0.00;0.62;0.00;0.00;0.62;2.33;1.20;;;27.50;28.20;;;;;;2257484;61;20359;-57
2021/10/02 01:54:47;0.00;0.00;0.62;0.00;0.00;0.62;1.90;0.90;;;27.50;28.20;;;;;;2257272;61;20394;-55
2021/10/02 01:57:41;0.00;0.00;0.62;0.00;0.00;0.62;2.00;1.10;;;27.40;28.20;;;;;;2257641;61;20487;-53
2021/10/02 02:00:27;0.00;0.00;0.62;0.00;0.00;0.62;1.60;0.90;;;27.40;28.20;;;;;;2257607;61;20399;-56
2021/10/02 02:03:17;0.00;0.00;0.62;0.00;0.00;0.62;1.60;1.07;;;27.40;28.20;;;;;;2257016;61;20724;-55
2021/10/02 02:06:03;0.00;0.00;0.62;0.00;0.00;0.62;2.80;1.00;;;27.40;28.30;;;;;;2257769;61;20810;-55
2021/10/02 02:08:48;0.00;0.00;0.62;0.00;0.00;0.62;1.70;1.00;;;27.30;28.20;;;;;;2257253;61;20577;-58
2021/10/02 02:11:34;0.00;0.00;0.62;0.00;0.00;0.62;2.40;1.43;;;27.30;28.30;;;;;;2257626;61;20358;-56
2021/10/02 02:14:20;0.00;0.00;0.62;0.00;0.00;0.62;1.80;1.20;;;27.30;28.30;;;;;;2257265;61;20418;-54
2021/10/02 02:17:08;0.00;0.00;0.62;0.00;0.00;0.62;2.20;1.10;;;27.30;28.30;;;;;;2257242;61;20459;-53
2021/10/02 02:19:56;0.00;0.00;0.62;0.00;0.00;0.62;2.33;1.40;;;27.20;28.20;;;;;;2257664;61;20382;-56
2021/10/02 02:22:40;0.00;0.00;0.62;0.00;0.00;0.62;2.10;1.37;;;27.20;28.20;;;;;;2257368;61;20387;-52
2021/10/02 02:25:25;0.00;0.00;0.62;0.00;0.00;0.62;1.87;1.53;;;27.20;28.30;;;;;;2256930;61;20387;-56
2021/10/02 02:28:10;0.00;0.00;0.62;0.00;0.00;0.62;2.37;1.43;;;27.20;28.20;;;;;;2257737;61;20426;-55
2021/10/02 02:30:56;0.00;0.00;0.62;0.00;0.00;0.62;2.53;1.30;;;27.20;28.20;;;;;;2257536;61;20719;-57
2021/10/02 02:33:42;0.00;0.00;0.62;0.00;0.00;0.62;1.80;1.10;;;27.20;28.20;;;;;;2257213;61;20382;-54
2021/10/02 02:36:27;0.00;0.00;0.62;0.00;0.00;0.62;1.83;1.20;;;27.20;28.20;;;;;;2257313;61;20363;-58
2021/10/02 02:39:12;0.00;0.00;0.62;0.00;0.00;0.62;1.70;1.30;;;27.10;28.20;;;;;;2257371;61;20367;-55
2021/10/02 02:41:56;0.00;0.00;0.62;0.00;0.00;0.62;3.10;1.37;;;27.10;28.20;;;;;;2257588;61;20754;-53
2021/10/02 02:44:41;0.00;0.00;0.62;0.00;0.00;0.62;2.83;1.40;;;27.10;28.20;;;;;;2257213;61;20602;-55
2021/10/02 02:47:30;0.00;0.00;0.62;0.00;0.00;0.62;1.73;1.00;;;27.00;28.20;;;;;;2257067;61;20371;-54
2021/10/02 02:50:28;0.00;0.00;0.62;0.00;0.00;0.62;1.97;1.20;;;27.10;28.30;;;;;;2257309;61;20359;-57
2021/10/02 02:53:22;0.00;0.00;0.62;0.00;0.00;0.62;1.60;1.17;;;27.00;28.30;;;;;;2257123;61;20363;-53
2021/10/02 02:56:14;0.00;0.00;0.62;0.00;0.00;0.62;1.87;1.10;;;27.00;28.30;;;;;;2257674;61;20386;-55
2021/10/02 02:59:10;0.00;0.00;0.62;0.00;0.00;0.62;3.50;1.17;;;27.00;28.40;;;;;;2257146;61;20718;-56
2021/10/02 03:01:58;0.00;0.00;0.62;0.00;0.00;0.62;2.40;1.07;;;27.00;28.90;;;;;;2256976;61;20867;-53
2021/10/02 03:04:44;0.00;0.00;0.62;0.00;0.00;0.62;2.20;1.30;;;27.00;28.40;;;;;;2257652;61;20386;-54
2021/10/02 03:07:37;0.00;0.00;0.62;0.00;0.00;0.62;1.93;1.43;;;26.90;28.40;;;;;;2257516;61;20355;-53
2021/10/02 03:10:22;0.00;0.00;0.62;0.00;0.00;0.62;2.90;1.50;;;27.00;28.50;;;;;;2257140;61;20359;-54
2021/10/02 03:13:11;0.00;0.00;0.62;0.00;0.00;0.62;1.67;1.10;;;26.90;28.40;;;;;;2257243;61;20393;-53
2021/10/02 03:15:56;0.00;0.00;0.62;0.00;0.00;0.62;1.70;1.30;;;26.90;28.50;;;;;;2257306;61;20375;-56
2021/10/02 03:18:46;0.00;0.00;0.62;0.00;0.00;0.62;1.70;1.30;;;26.90;28.50;;;;;;2257467;61;20421;-54
2021/10/02 03:21:32;0.00;0.00;0.62;0.00;0.00;0.62;1.80;1.30;;;26.90;28.50;;;;;;2257108;61;20453;-53
2021/10/02 03:24:20;0.00;0.00;0.62;0.00;0.00;0.62;1.70;1.30;;;26.90;28.50;;;;;;2256750;61;20390;-53
2021/10/02 03:27:09;0.00;0.00;0.62;0.00;0.00;0.62;2.23;1.20;;;26.80;28.50;;;;;;2257469;61;20367;-52
2021/10/02 03:29:55;0.00;0.00;0.62;0.00;0.00;0.62;2.10;1.47;;;26.80;28.50;;;;;;2257299;61;20390;-52
2021/10/02 03:32:40;0.00;0.00;0.62;0.00;0.00;0.62;2.90;1.10;;;26.80;28.50;;;;;;2259515;61;20406;-56
2021/10/02 03:35:25;0.00;0.00;0.62;0.00;0.00;0.62;1.90;1.40;;;26.80;28.50;;;;;;2257393;61;20394;-55
2021/10/02 03:38:09;0.00;0.00;0.62;0.00;0.00;0.62;1.60;1.23;;;26.80;28.60;;;;;;2257134;61;20362;-55
2021/10/02 03:41:00;0.00;0.00;0.62;0.00;0.00;0.62;2.97;1.30;;;26.80;28.60;;;;;;2257254;61;20390;-54
2021/10/02 03:43:44;0.00;0.00;0.62;0.00;0.00;0.62;2.03;1.20;;;26.80;28.60;;;;;;2257215;61;20383;-53
2021/10/02 03:46:29;0.00;0.00;0.62;0.00;0.00;0.62;2.13;1.27;;;26.80;28.70;;;;;;2256817;61;20359;-54
2021/10/02 03:49:14;0.00;0.00;0.62;0.00;0.00;0.62;1.60;1.30;;;26.80;28.70;;;;;;2257464;61;20406;-54
2021/10/02 03:51:59;0.00;0.00;0.62;0.00;0.00;0.62;2.17;1.40;;;26.70;28.60;;;;;;2257239;61;20374;-54
2021/10/02 03:54:43;0.00;0.00;0.62;0.00;0.00;0.62;3.97;1.50;;;26.70;28.60;;;;;;2256809;61;20385;-53
2021/10/02 03:57:29;0.00;0.00;0.62;0.00;0.00;0.62;1.80;1.30;;;26.70;28.70;;;;;;2257357;61;20402;-57
2021/10/02 04:00:15;0.00;0.00;0.62;0.00;0.00;0.62;2.17;1.30;;;26.70;28.70;;;;;;2256937;61;20746;-54
2021/10/02 04:03:00;0.00;0.00;0.62;0.00;0.00;0.62;2.00;1.40;;;26.70;28.70;;;;;;2257811;61;20628;-56
2021/10/02 04:05:45;0.00;0.00;0.62;0.00;0.00;0.62;2.80;1.50;;;26.70;28.70;;;;;;2257991;61;20402;-54
2021/10/02 04:08:29;0.00;0.00;0.62;0.00;0.00;0.62;2.00;1.30;;;26.70;28.80;;;;;;2257603;61;20402;-55
2021/10/02 04:11:14;0.00;0.00;0.62;0.00;0.00;0.62;1.80;1.20;;;26.70;28.80;;;;;;2258100;61;20361;-53
2021/10/02 04:14:02;0.00;0.00;0.62;0.00;0.00;0.62;2.10;1.30;;;26.70;28.80;;;;;;2257739;61;20378;-54
2021/10/02 04:16:47;0.00;0.00;0.62;0.00;0.00;0.62;2.17;1.33;;;26.60;28.80;;;;;;2257524;61;20367;-57
2021/10/02 04:19:32;0.00;0.00;0.62;0.00;0.00;0.62;2.43;1.40;;;26.60;28.80;;;;;;2258073;61;20358;-58
2021/10/02 04:22:17;0.00;0.00;0.62;0.00;0.00;0.62;1.97;1.40;;;26.60;28.80;;;;;;2257420;61;20841;-57
2021/10/02 04:25:03;0.00;0.00;0.62;0.00;0.00;0.62;2.40;1.40;;;26.60;28.80;;;;;;2257707;61;20796;-53
2021/10/02 04:27:48;0.00;0.00;0.62;0.00;0.00;0.62;1.80;1.10;;;26.50;28.80;;;;;;2257812;61;20354;-56
2021/10/02 04:30:34;0.00;0.00;0.62;0.00;0.00;0.62;1.90;1.50;;;26.50;28.80;;;;;;2257556;61;20346;-54
2021/10/02 04:33:21;0.00;0.00;0.62;0.00;0.00;0.62;1.73;1.40;;;26.50;28.80;;;;;;2257890;61;20367;-53
2021/10/02 04:36:05;0.00;0.00;0.62;0.00;0.00;0.62;3.67;1.60;;;26.50;28.90;;;;;;2257855;61;20359;-55
2021/10/02 04:38:50;0.00;0.00;0.62;0.00;0.00;0.62;4.53;1.27;;;26.40;28.90;;;;;;2257308;61;20354;-52
2021/10/02 04:41:34;0.00;0.00;0.62;0.00;0.00;0.62;2.20;1.20;;;26.40;28.90;;;;;;2257865;61;20413;-56
2021/10/02 04:44:19;0.00;0.00;0.62;0.00;0.00;0.62;1.93;1.50;;;26.30;28.90;;;;;;2257295;61;20804;-54
2021/10/02 04:47:05;0.00;0.00;0.62;0.00;0.00;0.62;1.73;1.13;;;26.30;29.00;;;;;;2257989;61;20402;-55
2021/10/02 04:49:50;0.00;0.00;0.62;0.00;0.00;0.62;1.53;1.10;;;26.30;29.00;;;;;;2257714;61;20819;-54
2021/10/02 04:52:34;0.00;0.00;0.62;0.00;0.00;0.62;2.77;1.43;;;26.30;29.00;;;;;;2257687;61;20394;-55
2021/10/02 04:55:19;0.00;0.00;0.62;0.00;0.00;0.62;4.67;1.90;;;26.20;29.10;;;;;;2258010;61;20382;-53
2021/10/02 04:58:03;0.00;0.00;0.62;0.00;0.00;0.62;4.07;2.40;;;26.20;29.20;;;;;;2257789;61;20391;-54
2021/10/02 05:00:49;0.00;0.00;0.62;0.00;0.00;0.62;5.17;3.00;;;26.20;29.20;;;;;;2257203;61;20442;-53
2021/10/02 05:03:36;0.00;0.00;0.62;0.00;0.00;0.62;5.60;3.73;;;26.10;29.20;;;;;;2257710;61;20374;-55
2021/10/02 05:06:20;0.00;0.00;0.62;0.00;0.00;0.62;6.53;3.70;;;26.10;29.30;;;;;;2257772;61;20635;-57
2021/10/02 05:09:05;0.00;0.00;0.62;0.00;0.00;0.62;7.30;4.70;;;26.10;29.30;;;;;;2257771;61;20570;-57
2021/10/02 05:11:49;0.00;0.00;0.62;0.00;0.00;0.62;6.50;4.93;;;26.10;29.30;;;;;;2257941;61;20358;-53
2021/10/02 05:14:34;0.00;0.00;0.62;0.00;0.00;0.62;6.10;4.70;;;26.10;29.40;;;;;;2257281;61;20766;-55
2021/10/02 05:17:19;0.00;0.00;0.62;0.00;0.00;0.62;4.83;3.67;;;26.10;29.40;;;;;;2257764;61;20700;-53
2021/10/02 05:20:06;0.00;0.00;0.62;0.00;0.00;0.62;8.90;4.90;;;26.10;29.40;;;;;;2257687;61;20355;-55
2021/10/02 05:22:50;0.00;0.00;0.62;0.00;0.00;0.62;6.67;4.47;;;26.10;29.40;;;;;;2257146;61;20359;-53
2021/10/02 05:25:35;0.00;0.00;0.62;0.00;0.00;0.62;6.83;4.90;;;26.10;29.40;;;;;;2257783;61;20389;-53
2021/10/02 05:28:20;0.00;0.00;0.62;0.00;0.00;0.62;8.00;5.23;;;26.10;29.40;;;;;;2257688;61;20378;-54
2021/10/02 05:31:05;0.00;0.00;0.62;0.00;0.00;0.62;7.93;4.53;;;26.10;29.50;;;;;;2257668;61;20430;-56
2021/10/02 05:33:49;0.00;0.00;0.62;0.00;0.00;0.62;9.80;5.30;;;26.10;29.50;;;;;;2257742;61;20386;-55
2021/10/02 05:36:35;0.00;0.00;0.62;0.00;0.00;0.62;9.47;4.80;;;26.10;29.50;;;;;;2257463;61;20382;-54
2021/10/02 05:39:20;0.00;0.00;0.62;0.00;0.00;0.62;6.40;4.80;;;26.10;29.50;;;;;;2257777;61;20375;-53
2021/10/02 05:42:04;0.00;0.00;0.62;0.00;0.00;0.62;6.30;4.07;;;26.10;29.50;;;;;;2257619;61;20425;-56
2021/10/02 05:44:49;0.00;0.00;0.62;0.00;0.00;0.62;7.30;4.40;;;26.10;29.50;;;;;;2256985;61;20387;-54
2021/10/02 05:47:33;0.00;0.00;0.62;0.00;0.00;0.62;6.20;4.10;;;26.10;29.50;;;;;;2258047;61;20386;-54
2021/10/02 05:50:20;0.00;0.00;0.62;0.00;0.00;0.62;9.53;4.93;;;26.10;29.50;;;;;;2257578;61;20375;-56
2021/10/02 05:53:07;0.00;0.00;0.62;0.00;0.00;0.62;4.53;3.80;;;26.10;29.50;;;;;;2257148;61;20355;-55
2021/10/02 05:55:52;0.00;0.00;0.62;0.00;0.00;0.62;3.90;3.30;;;26.10;29.50;;;;;;2257713;61;20427;-56
2021/10/02 05:58:36;0.00;0.00;0.62;0.00;0.00;0.62;3.37;2.70;;;26.10;29.50;;;;;;2257493;61;20359;-56
2021/10/02 06:01:21;0.00;0.00;0.62;0.00;0.00;0.62;6.07;3.83;;;26.10;29.50;;;;;;2257629;61;20407;-54
2021/10/02 06:04:06;0.00;0.00;0.62;0.00;0.00;0.62;5.50;2.73;;;26.00;29.50;;;;;;2257226;61;20442;-55
2021/10/02 06:06:51;0.00;0.00;0.62;0.00;0.00;0.62;5.40;3.10;;;26.00;29.60;;;;;;2257141;61;20363;-52
2021/10/02 06:09:37;0.00;0.00;0.62;0.00;0.00;0.62;4.33;2.67;;;26.00;29.60;;;;;;2257758;61;20382;-55
2021/10/02 06:12:21;0.00;0.00;0.62;0.00;0.00;0.62;4.87;2.90;;;26.00;29.60;;;;;;2257386;61;20707;-54
2021/10/02 06:15:07;0.00;0.00;0.62;0.00;0.00;0.62;3.40;2.53;;;26.00;29.60;;;;;;2257266;61;20414;-58
2021/10/02 06:17:52;0.00;0.00;0.62;0.00;0.00;0.62;4.43;2.40;;;26.00;29.60;;;;;;2257578;61;20370;-57
2021/10/02 06:20:37;0.00;0.00;0.62;0.00;0.00;0.62;3.60;2.17;;;26.00;29.70;;;;;;2257105;61;20706;-55
2021/10/02 06:23:22;0.00;0.00;0.62;0.00;0.00;0.62;4.30;2.33;;;25.90;29.70;;;;;;2257505;61;20593;-56
2021/10/02 06:26:08;0.00;0.00;0.62;0.00;0.00;0.62;3.10;2.10;;;25.90;29.70;;;;;;2257260;61;20355;-59
2021/10/02 06:28:52;0.00;0.00;0.62;0.00;0.00;0.62;3.50;1.57;;;25.90;29.80;;;;;;2257409;61;20362;-59
2021/10/02 06:31:37;0.00;0.00;0.62;0.00;0.00;0.62;2.70;1.90;;;25.90;29.70;;;;;;2257564;61;20771;-57
2021/10/02 06:34:21;0.00;0.00;0.62;0.00;0.00;0.62;2.67;2.03;;;25.80;29.70;;;;;;2256948;61;20383;-59
2021/10/02 06:37:06;0.00;0.00;0.62;0.00;0.00;0.62;2.60;1.63;;;25.80;29.70;;;;;;2256498;61;20354;-60
2021/10/02 06:39:51;0.00;0.00;0.62;0.00;0.00;0.62;2.53;1.83;;;25.80;29.80;;;;;;2257725;61;20359;-58
2021/10/02 06:42:36;0.00;0.00;0.62;0.00;0.00;0.62;2.37;1.43;;;25.80;29.80;;;;;;2256987;61;20382;-57
2021/10/02 06:45:22;0.00;0.00;0.62;0.00;0.00;0.62;4.30;1.90;;;25.80;29.90;;;;;;2257365;61;20387;-59
2021/10/02 06:48:06;0.00;0.00;0.62;0.00;0.00;0.62;2.20;1.83;;;25.70;29.90;;;;;;2257542;61;20389;-58
2021/10/02 06:50:51;0.00;0.00;0.62;0.00;0.00;0.62;2.43;2.03;;;25.70;29.90;;;;;;2257281;61;20383;-58
2021/10/02 06:53:36;0.00;0.00;0.62;0.00;0.00;0.62;3.60;2.20;;;25.70;29.90;;;;;;2257420;61;20754;-57
2021/10/02 06:56:20;0.00;0.00;0.62;0.00;0.00;0.62;2.60;1.60;;;25.70;30.00;;;;;;2257472;61;20363;-58
2021/10/02 06:59:06;0.00;0.00;0.62;0.00;0.00;0.62;3.57;1.90;;;25.70;30.00;;;;;;2256949;61;20358;-56
2021/10/02 07:01:50;0.00;0.00;0.62;0.00;0.00;0.62;4.03;1.67;;;25.70;30.00;;;;;;2259984;61;20855;-57
2021/10/02 07:04:35;0.00;0.00;0.62;0.00;0.00;0.62;2.20;1.30;;;25.70;30.00;;;;;;2257233;61;20382;-59
2021/10/02 07:07:19;0.00;0.00;0.62;0.00;0.00;0.62;2.40;1.50;;;25.60;30.00;;;;;;2257302;61;20379;-57
2021/10/02 07:10:06;0.00;0.00;0.62;0.00;0.00;0.62;3.37;1.73;;;25.60;30.00;;;;;;2257872;61;20371;-55
2021/10/02 07:12:54;0.00;0.00;0.62;0.00;0.00;0.62;1.80;1.60;;;25.60;30.00;;;;;;2257015;61;20409;-55
2021/10/02 07:15:39;0.00;0.00;0.62;0.00;0.00;0.62;2.10;1.43;;;25.60;30.00;;;;;;2257342;61;20374;-58
2021/10/02 07:18:24;0.00;0.00;0.62;0.00;0.00;0.62;2.97;1.50;;;25.70;30.20;;;;;;2257456;61;20590;-54
2021/10/02 07:21:09;0.00;0.00;0.62;0.00;0.00;0.62;3.30;2.00;;;25.70;30.20;;;;;;2256629;61;20460;-59
2021/10/02 07:23:53;0.00;0.00;0.62;0.00;0.00;0.62;1.80;1.03;;;25.70;30.20;;;;;;2257598;61;20600;-60
2021/10/02 07:26:38;0.00;0.00;0.62;0.00;0.00;0.62;1.70;1.30;;;25.60;30.10;;;;;;2257358;61;20398;-57
2021/10/02 07:29:22;0.00;0.00;0.62;0.00;0.00;0.62;2.60;1.57;;;25.70;30.10;;;;;;2256856;61;20402;-56
2021/10/02 07:32:08;0.00;0.00;0.62;0.00;0.00;0.62;1.93;1.37;;;25.70;30.80;;;;;;2257791;61;20718;-58
2021/10/02 07:34:53;0.00;0.00;0.62;0.00;0.00;0.62;3.60;1.73;;;25.70;30.00;;;;;;2257099;61;20407;-58
2021/10/02 07:37:38;0.00;0.00;0.62;0.00;0.00;0.62;2.43;1.50;;;25.70;30.00;;;;;;2258463;61;20355;-57
2021/10/02 07:40:22;0.00;0.00;0.62;0.00;0.00;0.62;3.10;1.60;;;25.70;30.00;;;;;;2258523;61;20386;-57
2021/10/02 07:43:10;0.00;0.00;0.62;0.00;0.00;0.62;2.27;1.40;;;25.70;30.00;;;;;;2258148;61;20422;-56
2021/10/02 07:45:56;0.00;0.00;0.62;0.00;0.00;0.62;1.60;1.40;;;25.70;30.00;;;;;;2258614;61;20366;-55
2021/10/02 07:48:43;0.00;0.00;0.62;0.00;0.00;0.62;3.13;1.40;;;25.70;30.00;;;;;;2258629;61;20354;-51
2021/10/02 07:51:28;0.00;0.00;0.62;0.00;0.00;0.62;1.97;1.50;;;25.70;30.00;;;;;;2255765;61;20375;-58
2021/10/02 07:54:14;0.00;0.00;0.62;0.00;0.00;0.62;2.60;1.77;;;25.70;30.00;;;;;;2254725;61;20371;-58
2021/10/02 07:56:59;0.00;0.00;0.62;0.00;0.00;0.62;2.97;1.70;;;25.70;30.20;;;;;;2254327;61;20374;-59
2021/10/02 07:59:45;0.00;0.00;0.62;0.00;0.00;0.62;2.83;2.00;;;25.70;30.10;;;;;;2254682;61;20356;-59
2021/10/02 08:02:31;0.00;0.00;0.62;0.00;0.00;0.62;3.47;1.97;;;25.70;30.20;;;;;;2254614;61;20439;-57
2021/10/02 08:05:18;0.00;0.00;0.62;0.00;0.00;0.62;2.30;1.87;;;25.60;30.10;;;;;;2254063;61;20791;-58
2021/10/02 08:08:05;0.00;0.00;0.62;0.00;0.00;0.62;2.87;1.57;;;25.60;30.00;;;;;;2255064;61;20549;-58
2021/10/02 08:10:51;0.00;0.00;0.62;0.00;0.00;0.62;2.00;1.40;;;25.70;30.10;;;;;;2254298;61;20390;-59
2021/10/02 08:13:37;0.00;0.00;0.62;0.00;0.00;0.62;2.00;1.60;;;25.60;30.00;;;;;;2253977;61;20427;-57
2021/10/02 08:16:28;0.00;0.00;0.62;0.00;0.00;0.62;1.87;1.33;;;25.60;30.00;;;;;;2254942;61;20355;-53
2021/10/02 08:19:18;0.00;0.00;0.62;0.00;0.00;0.62;2.30;1.50;;;25.60;30.10;;;;;;2254359;61;20739;-54
2021/10/02 08:22:05;0.00;0.00;0.62;0.00;0.00;0.62;2.23;1.60;;;25.60;30.20;;;;;;2254494;61;20425;-54
2021/10/02 08:24:51;0.00;0.00;0.62;0.00;0.00;0.62;1.80;1.37;;;25.60;30.20;;;;;;2254351;61;20534;-54
2021/10/02 08:27:36;0.00;0.00;0.62;0.00;0.00;0.62;2.40;1.63;;;25.60;30.20;;;;;;2256479;61;20581;-53
2021/10/02 08:30:21;0.00;0.00;0.62;0.00;0.00;0.62;1.77;1.27;;;25.60;30.20;;;;;;2254744;61;20398;-54
2021/10/02 08:33:06;0.00;0.00;0.62;0.00;0.00;0.62;3.00;1.43;;;25.70;30.30;;;;;;2254402;61;20395;-55
2021/10/02 08:35:51;0.00;0.00;0.62;0.00;0.00;0.62;1.67;1.20;;;25.70;30.30;;;;;;2254119;61;20368;-53
2021/10/02 08:38:37;0.00;0.00;0.62;0.00;0.00;0.62;2.10;1.60;;;25.70;30.30;;;;;;2254730;61;20359;-54
2021/10/02 08:41:24;0.00;0.00;0.62;0.00;0.00;0.62;1.90;1.20;;;25.70;30.20;;;;;;2254090;61;20383;-54
2021/10/02 08:44:10;0.00;0.00;0.62;0.00;0.00;0.62;1.70;1.10;;;25.70;30.20;;;;;;2254351;61;20669;-53
2021/10/02 08:46:58;0.00;0.00;0.62;0.00;0.00;0.62;2.03;1.07;;;25.80;30.20;;;;;;2254505;61;20356;-52
2021/10/02 08:49:44;0.00;0.00;0.62;0.00;0.00;0.62;2.60;1.43;;;25.80;30.20;;;;;;2253534;61;20355;-50
2021/10/02 08:52:30;0.00;0.00;0.62;0.00;0.00;0.62;1.80;1.40;;;25.80;30.20;;;;;;2253927;61;20375;-52
2021/10/02 08:55:17;0.00;0.00;0.62;0.00;0.00;0.62;1.90;1.37;;;25.80;30.10;;;;;;2253809;61;20380;-52
2021/10/02 08:58:03;0.00;0.00;0.62;0.00;0.00;0.62;2.40;1.50;;;25.80;30.20;;;;;;2253348;61;20372;-53
2021/10/02 09:00:47;0.00;0.00;0.62;0.00;0.00;0.62;1.73;1.00;;;25.80;30.10;;;;;;2253954;61;20436;-54
2021/10/02 09:03:31;0.00;0.00;0.62;0.00;0.00;0.62;1.90;1.20;;;25.90;30.20;;;;;;2253406;61;20387;-50
2021/10/02 09:06:16;0.00;0.00;0.62;0.00;0.00;0.62;2.10;1.30;;;25.90;30.10;;;;;;2253691;61;20388;-51
2021/10/02 09:09:01;0.00;0.00;0.62;0.00;0.00;0.62;1.77;1.20;;;25.90;30.10;;;;;;2253841;61;20360;-53
2021/10/02 09:11:47;0.00;0.00;0.62;0.00;0.00;0.62;1.60;1.07;;;26.00;30.10;;;;;;2253614;61;20344;-55
2021/10/02 09:14:32;0.00;0.00;0.62;0.00;0.00;0.62;2.03;1.43;;;26.00;30.10;;;;;;2253745;61;20391;-54
2021/10/02 09:17:17;0.00;0.00;0.62;0.00;0.00;0.62;1.60;1.13;;;26.00;30.10;;;;;;2254002;61;20387;-53
2021/10/02 09:20:03;0.00;0.00;0.62;0.00;0.00;0.62;1.70;1.10;;;26.00;30.00;;;;;;2253066;61;20411;-54
2021/10/02 09:22:54;0.00;0.00;0.62;0.00;0.00;0.62;1.87;1.30;;;26.00;30.00;;;;;;2254018;61;20388;-54
2021/10/02 09:25:48;0.00;0.00;0.62;0.00;0.00;0.62;3.67;1.20;;;26.00;30.00;;;;;;2253273;61;20391;-52
2021/10/02 09:28:40;0.00;0.00;0.62;0.00;0.00;0.62;1.80;1.20;;;26.10;30.10;;;;;;2253653;61;20356;-52
2021/10/02 09:31:30;0.00;0.00;0.62;0.00;0.00;0.62;2.03;1.40;;;26.10;30.10;;;;;;2253715;61;20356;-51
2021/10/02 09:34:23;0.00;0.00;0.62;0.00;0.00;0.62;1.80;1.20;;;26.10;30.00;;;;;;2252981;61;20771;-54
2021/10/02 09:37:23;0.00;0.00;0.62;0.00;0.00;0.62;2.13;1.07;;;26.10;30.10;;;;;;2254035;61;20359;-53
2021/10/02 09:40:22;;;;;;;;;;;;;;;;;;;;;
2021/10/02 09:43:06;0.00;0.00;0.62;0.00;0.00;0.62;1.70;1.17;;;26.20;30.10;;;;;;2250032;61;20422;-52
2021/10/02 09:45:53;0.00;0.00;0.62;0.00;0.00;0.62;1.67;1.10;;;26.20;30.70;;;;;;2253787;61;20359;-54
2021/10/02 09:48:38;0.00;0.00;0.62;0.00;0.00;0.62;1.50;1.00;;;26.20;30.10;;;;;;2253432;61;20716;-52
2021/10/02 09:51:38;0.00;0.00;0.62;0.00;0.00;0.62;1.60;1.10;;;26.20;30.10;;;;;;2253915;61;20383;-54
2021/10/02 09:54:37;0.00;0.00;0.62;0.00;0.00;0.62;1.43;0.97;;;26.20;30.10;;;;;;2253567;61;20768;-55
2021/10/02 09:57:23;0.00;0.00;0.62;0.00;0.00;0.62;1.43;1.00;;;26.30;30.10;;;;;;2253293;61;20360;-56
2021/10/02 10:00:11;0.00;0.00;0.62;0.00;0.00;0.62;1.77;1.03;;;26.30;30.10;;;;;;2253771;61;20363;-57
2021/10/02 10:02:59;0.00;0.00;0.62;0.00;0.00;0.62;1.80;1.27;;;26.30;30.00;;;;;;2253240;61;20584;-52
2021/10/02 10:05:46;0.00;0.00;0.62;0.00;0.00;0.62;1.40;1.00;;;26.30;30.00;;;;;;2253387;61;20394;-54
2021/10/02 10:08:31;0.00;0.00;0.62;0.00;0.00;0.62;2.33;1.00;;;26.30;30.00;;;;;;2253787;61;20360;-53
2021/10/02 10:11:15;0.00;0.00;0.62;0.00;0.00;0.62;1.60;1.00;;;26.40;30.00;;;;;;2253182;61;20423;-53
2021/10/02 10:14:00;0.00;0.00;0.62;0.00;0.00;0.62;1.67;1.10;;;26.40;30.00;;;;;;2253576;61;20395;-57
2021/10/02 10:16:44;0.00;0.00;0.62;0.00;0.00;0.62;1.50;1.00;;;26.40;30.00;;;;;;2253527;61;20399;-54
2021/10/02 10:19:31;0.00;0.00;0.62;0.00;0.00;0.62;1.40;0.97;;;26.40;30.00;;;;;;2253033;61;20402;-55
2021/10/02 10:22:21;0.00;0.00;0.62;0.00;0.00;0.62;2.23;1.40;;;26.50;30.00;;;;;;2253840;61;20379;-54
2021/10/02 10:25:08;0.00;0.00;0.62;0.00;0.00;0.62;3.23;1.40;;;26.40;30.00;;;;;;2253249;61;20423;-52
2021/10/02 10:27:57;0.00;0.00;0.62;0.00;0.00;0.62;1.50;1.00;;;26.40;30.00;;;;;;2253532;61;20387;-54
2021/10/02 10:30:46;0.00;0.00;0.62;0.00;0.00;0.62;1.50;1.00;;;26.50;30.00;;;;;;2253397;61;20424;-56
2021/10/02 10:33:32;0.00;0.00;0.62;0.00;0.00;0.62;1.50;1.00;;;26.50;30.00;;;;;;2252915;61;20356;-55
2021/10/02 10:36:20;0.00;0.00;0.62;0.00;0.00;0.62;1.67;1.10;;;26.50;29.90;;;;;;2253823;61;20356;-54
2021/10/02 10:39:05;0.00;0.00;0.62;0.00;0.00;0.62;1.47;0.80;;;26.50;29.90;;;;;;2253430;61;20360;-54
2021/10/02 10:41:50;0.00;0.00;0.62;0.00;0.00;0.62;1.20;0.80;;;26.50;30.00;;;;;;2253030;61;20766;-51
2021/10/02 10:44:35;0.00;0.00;0.62;0.00;0.00;0.62;1.80;0.80;;;26.50;30.00;;;;;;2253677;61;20374;-51
2021/10/02 10:47:21;0.00;0.00;0.62;0.00;0.00;0.62;1.43;0.90;;;26.50;29.90;;;;;;2253371;61;20617;-54
2021/10/02 10:50:07;0.00;0.00;0.62;0.00;0.00;0.62;1.40;1.00;;;26.50;29.90;;;;;;2253453;61;20371;-56
2021/10/02 10:52:58;0.00;0.00;0.62;0.00;0.00;0.62;1.80;1.10;;;26.60;30.00;;;;;;2253369;61;20379;-53
2021/10/02 10:55:52;0.00;0.00;0.62;0.00;0.00;0.62;1.40;0.90;;;26.60;30.00;;;;;;2253078;61;20385;-52
2021/10/02 10:58:37;0.00;0.00;0.62;0.00;0.00;0.62;2.00;1.00;;;26.60;30.00;;;;;;2253692;61;20708;-56
2021/10/02 11:01:34;0.00;0.00;0.62;0.00;0.00;0.62;1.37;0.80;;;26.50;29.90;;;;;;2253365;61;20380;-55
2021/10/02 11:04:35;0.00;0.00;0.62;0.00;0.00;0.62;1.40;0.90;;;26.50;29.90;;;;;;2253155;61;20585;-50
2021/10/02 11:07:49;0.00;0.00;0.62;0.00;0.00;0.62;1.27;0.80;;;26.60;30.00;;;;;;2253421;61;20358;-54
2021/10/02 11:10:51;0.00;0.00;0.62;0.00;0.00;0.62;1.90;1.20;;;26.60;30.00;;;;;;2252815;61;20355;-55
2021/10/02 11:13:53;0.00;0.00;0.62;0.00;0.00;0.62;1.50;1.00;;;26.60;30.00;;;;;;2253399;61;20367;-54
2021/10/02 11:16:39;0.00;0.00;0.62;0.00;0.00;0.62;1.93;1.00;;;26.60;30.00;;;;;;2252856;61;20480;-52
2021/10/02 11:19:33;0.00;0.00;0.62;0.00;0.00;0.62;1.60;0.97;;;26.60;29.90;;;;;;2253229;61;20368;-52
2021/10/02 11:23:41;0.00;0.00;0.62;0.00;0.00;0.62;1.43;0.90;;;26.60;30.00;;;;;;2253315;61;20500;-54
2021/10/02 11:26:38;0.00;0.00;0.62;0.00;0.00;0.62;1.50;1.10;;;26.60;30.00;;;;;;2246794;61;20401;-53
2021/10/02 11:29:30;0.00;0.00;0.62;0.00;0.00;0.62;1.60;1.00;;;26.70;30.00;;;;;;2253355;61;20475;-55
2021/10/02 11:32:33;0.00;0.00;0.62;0.00;0.00;0.62;1.43;0.93;;;26.60;30.00;;;;;;2253124;61;20688;-56
2021/10/02 11:35:29;0.00;0.00;0.62;0.00;0.00;0.62;2.33;1.00;;;26.70;30.00;;;;;;2253377;61;20391;-54
2021/10/02 11:38:13;0.00;0.00;0.62;0.00;0.00;0.62;1.40;0.70;;;26.70;30.10;;;;;;2253349;61;20404;-56
2021/10/02 11:40:57;0.00;0.00;0.62;0.00;0.00;0.62;1.73;1.00;;;26.70;30.10;;;;;;2252758;61;20359;-54
2021/10/02 11:43:53;0.00;0.00;0.62;0.00;0.00;0.62;1.60;0.90;;;26.80;30.20;;;;;;2253474;61;20584;-55
2021/10/02 11:46:38;0.00;0.00;0.62;0.00;0.00;0.62;1.30;0.90;;;26.80;30.20;;;;;;2253099;61;20407;-52
2021/10/02 11:49:23;0.00;0.00;0.62;0.00;0.00;0.62;1.53;1.00;;;26.80;30.20;;;;;;2253300;61;20395;-55
2021/10/02 11:52:11;0.00;0.00;0.62;0.00;0.00;0.62;1.63;0.80;;;26.90;30.10;;;;;;2253245;61;20387;-52
2021/10/02 11:54:55;0.00;0.00;0.62;0.00;0.00;0.62;1.53;1.00;;;26.90;30.10;;;;;;2252771;61;20379;-54
2021/10/02 11:58:10;0.00;0.00;0.62;0.00;0.00;0.62;1.40;0.90;;;26.90;30.00;;;;;;2253696;61;20359;-52
2021/10/02 12:01:00;0.00;0.00;0.62;0.00;0.00;0.62;1.40;0.93;;;27.00;30.00;;;;;;2252689;61;20419;-55